Waar ligt Templo de Diana in Portugal?

Templo de Diana is gevestigd in de regio Evora in Portugal!

Zoek de plaatsnaam:

Temperance Lake, Templomdulo, Tempelsili, Tempio di Venere, Tempziner See

Hier ziet u waar Templo de Diana op de kaart ligt.
Voor een indruk van hoe het er nu buiten uitziet staan onderaan wat plaatjes van de omgeving vanuit online web camera's.
U ziet ook de afstanden tot de belangrijkste plaatsen in de regio en tot plaatsen in de rest van Portugal.

Alle plaatsen in de wereld die heten.

new

Waar ligt Templo de Diana op de kaart?


Webcams vlakbij Templo de Diana

Comporta: Distrito de - Praia do Carvalhal░.


Comporta: Distrito de - Praia do Carvalhal░ - Overdag
Recent
Comporta: Distrito de - Praia do Carvalhal░ - Recent

Benavente > North-East: AIrport, METAR: BENAV 180005Z 36004KT 17/14 Q1015.


Benavente > North-East: AIrport, METAR: BENAV 180005Z 36004KT 17/14 Q1015 - Overdag
Recent
Benavente > North-East: AIrport, METAR: BENAV 180005Z 36004KT 17/14 Q1015 - Recent

Abrantes > South-West: Centro Cidade.


Abrantes > South-West: Centro Cidade - Overdag
Recent
Abrantes > South-West: Centro Cidade - Recent

Webcams provided by webcams.travel

Afstanden

Waar ligt Templo de Diana ten opzichte van andere plaatsen?

Top 10 plaatsen in Evora en afstand vanaf Templo de Diana.

Plaats#Inwonerskmmijl
╔vora14585121
Montemor-o-Novo2128542717
Vendas Novas3112485031
Estremoz493494226
Reguengos de Monsaraz572173723
Redondo658453220
Vila Višosa754844830
Borba845864729
Adaval9-2616
Agua d' Alte10-3220

Top 10 plaatsen in Portugal en afstand vanaf Templo de Diana.

Plaats # Inwonerskmmijl
Lisbon151779810867
Porto2249630293182
Amadora317885611773
Braga4121393335208
Set˙bal51171098754
Coimbra6106580187116
Queluz710339811974
Funchal8980411046650
Vila Nova de Gaia970810291181
Loures106623011370

Reisadvies Portugal

Advies en informatie van het ministerie van Buitenlandse Zaken over (zaken)reizen en veiligheidsrisicoĺs in Portugal via rijksoverheid.nl.

Met een reisadvies kunnen Nederlandse reizigers zich beter voorbereiden op veiligheidsrisicoĺs tijdens een buitenlands vakantie of verblijf. Wees geinformerd over de risico's op ontvoeringen, gewapende overvallen, bomaanslagen, natuurrampen of oorlogsgeweld. Buitenlandse Zaken vermeldt in een reisadvies bijvoorbeeld welke gebieden in Portugalo onveilig zijn, roept reizigers op tot waakzaamheid of ontraadt reizen.

Reisadvies Portugal



Reisinformatie Portugal

Informatie over residocumenten, aanvragen van een visa en de kosten hiervan. Contactinformatie van de ambassade in Portugal. Informatie over reisverzekeringen.

Reisinformatie Portugal